METAR AND TAF INFORMATION
METAR FOR EPPO
ADDS - METARS form results

(0622 UTC 22 July 2018)
Data provider http://aviationweather.gov/adds/metars/
 
METAR text: EPPO 220600Z 35005KT CAVOK 18/13 Q1012
Conditions at: EPPO (POZNAN/LAWICA , PL) observed 0600 UTC 22 July 2018
Temperature: 18.0°C (64°F)
Dewpoint: 13.0°C (55°F) [RH = 73%]
Pressure (altimeter): 29.88 inches Hg (1012.0 mb)
Winds: from the N (350 degrees) at 6 MPH (5 knots; 2.6 m/s)
Visibility: 6 or more miles (10+ km)
Ceiling: ceiling and visibility are OK
Clouds: unknown
Weather: no significant weather observed at this time

METAR text: EPPO 220530Z 35005KT CAVOK 17/13 Q1012
Conditions at: EPPO (POZNAN/LAWICA , PL) observed 0530 UTC 22 July 2018
Temperature: 17.0°C (63°F)
Dewpoint: 13.0°C (55°F) [RH = 77%]
Pressure (altimeter): 29.88 inches Hg (1012.0 mb)
Winds: from the N (350 degrees) at 6 MPH (5 knots; 2.6 m/s)
Visibility: 6 or more miles (10+ km)
Ceiling: ceiling and visibility are OK
Clouds: unknown
Weather: no significant weather observed at this time

Forecast for: EPPO (POZNAN/LAWICA , PL)
Text: TAF EPPO 220530Z 2206/2306 35006KT CAVOK
Forecast period: 0600 UTC 22 July 2018 to 0600 UTC 23 July 2018
Forecast type: FROM: standard forecast or significant change
Winds: from the N (350 degrees) at 7 MPH (6 knots; 3.1 m/s)
Visibility: 6 or more miles (10+ km)
Clouds: not forecast
Weather: NSW  (no significant weather)

 AIRPORT MAP

 RUNWAY INFORMATION
Runway 02 Runway length 2296 ft Runway width 984 ft
Runway elevation 0 ft Runway displaced threshold 0 ft Runway heading 0
Runway 20 Runway length 2296 ft Runway width 984 ft
Runway elevation 0 ft Runway displaced threshold 0 ft Runway heading 0
Runway 10 Runway length 8215 ft Runway width 164 ft
Runway elevation 308 ft Runway displaced threshold 0 ft Runway heading 108
Runway 28 Runway length 8215 ft Runway width 164 ft
Runway elevation 289 ft Runway displaced threshold 0 ft Runway heading 288

 AIRPORT FREQUENCIES
Type APP Name POZNAN APP Frequency 135.525 MHZ
Type ATIS Name POZNAN ATI Frequency 124.7 MHZ
Type TWR Name POZNAN TWR Frequency 119.975 MHZ

 AIRPORT NEAR NAVIGATION AIDS
Type NDB Name Poznan Frequency 429 KHZ



Powered by Virtual Airlines Manager [v2.6.1]